sensor_id;sensor_type;location;lat;lon;timestamp;pressure;altitude;pressure_sealevel;temperature;humidity
74722;BME280;63470;49.826;6.740;2024-02-23T00:00:23;98045.81;;;7.57;74.82
74722;BME280;63470;49.826;6.740;2024-02-23T00:02:59;98046.84;;;7.13;73.97
74722;BME280;63470;49.826;6.740;2024-02-23T00:05:25;98049.91;;;6.58;74.37
74722;BME280;63470;49.826;6.740;2024-02-23T00:07:57;98040.50;;;6.14;75.06
74722;BME280;63470;49.826;6.740;2024-02-23T00:10:28;98037.98;;;5.84;75.38
74722;BME280;63470;49.826;6.740;2024-02-23T00:12:56;98052.34;;;5.56;75.65
74722;BME280;63470;49.826;6.740;2024-02-23T00:15:30;98055.00;;;5.37;76.01
74722;BME280;63470;49.826;6.740;2024-02-23T00:17:59;98055.28;;;5.29;76.27
74722;BME280;63470;49.826;6.740;2024-02-23T00:20:29;98059.77;;;5.30;76.31
74722;BME280;63470;49.826;6.740;2024-02-23T00:23:02;98067.14;;;5.33;76.12
74722;BME280;63470;49.826;6.740;2024-02-23T00:25:30;98070.27;;;5.42;76.02
74722;BME280;63470;49.826;6.740;2024-02-23T00:28:03;98079.93;;;5.61;75.84
74722;BME280;63470;49.826;6.740;2024-02-23T00:30:31;98072.44;;;5.80;75.57
74722;BME280;63470;49.826;6.740;2024-02-23T00:33:02;98076.13;;;5.96;75.34
74722;BME280;63470;49.826;6.740;2024-02-23T00:35:30;98078.20;;;6.11;75.18
74722;BME280;63470;49.826;6.740;2024-02-23T00:37:58;98084.59;;;6.23;75.10
74722;BME280;63470;49.826;6.740;2024-02-23T00:40:33;98076.84;;;6.36;75.05
74722;BME280;63470;49.826;6.740;2024-02-23T00:43:06;98086.25;;;6.49;74.93
74722;BME280;63470;49.826;6.740;2024-02-23T00:45:34;98084.07;;;6.55;74.84
74722;BME280;63470;49.826;6.740;2024-02-23T00:48:00;98095.36;;;6.54;74.75
74722;BME280;63470;49.826;6.740;2024-02-23T00:50:34;98098.51;;;6.48;74.74
74722;BME280;63470;49.826;6.740;2024-02-23T00:53:06;98104.49;;;6.45;74.77
74722;BME280;63470;49.826;6.740;2024-02-23T00:55:37;98103.02;;;6.46;74.77
74722;BME280;63470;49.826;6.740;2024-02-23T00:58:04;98114.55;;;6.46;74.69
74722;BME280;63470;49.826;6.740;2024-02-23T01:00:35;98116.87;;;6.48;74.75
74722;BME280;63470;49.826;6.740;2024-02-23T01:03:06;98115.62;;;6.55;74.76
74722;BME280;63470;49.826;6.740;2024-02-23T01:05:34;98122.89;;;6.63;74.74
74722;BME280;63470;49.826;6.740;2024-02-23T01:08:07;98121.67;;;6.67;74.73
74722;BME280;63470;49.826;6.740;2024-02-23T01:10:35;98126.67;;;6.68;74.64
74722;BME280;63470;49.826;6.740;2024-02-23T01:13:09;98120.48;;;6.62;74.61
74722;BME280;63470;49.826;6.740;2024-02-23T01:15:39;98116.12;;;6.48;74.48
74722;BME280;63470;49.826;6.740;2024-02-23T01:18:09;98112.27;;;6.30;74.54
74722;BME280;63470;49.826;6.740;2024-02-23T01:20:39;98118.69;;;6.17;74.58
74722;BME280;63470;49.826;6.740;2024-02-23T01:23:11;98124.70;;;6.11;74.57
74722;BME280;63470;49.826;6.740;2024-02-23T01:25:40;98121.27;;;6.11;74.56
74722;BME280;63470;49.826;6.740;2024-02-23T01:28:10;98125.77;;;6.14;74.46
74722;BME280;63470;49.826;6.740;2024-02-23T01:30:40;98127.12;;;6.14;74.32
74722;BME280;63470;49.826;6.740;2024-02-23T01:33:11;98139.04;;;6.10;74.25
74722;BME280;63470;49.826;6.740;2024-02-23T01:35:43;98150.49;;;6.08;74.23
74722;BME280;63470;49.826;6.740;2024-02-23T01:38:13;98150.83;;;6.10;74.26
74722;BME280;63470;49.826;6.740;2024-02-23T01:40:39;98144.70;;;6.13;74.14
74722;BME280;63470;49.826;6.740;2024-02-23T01:43:12;98145.44;;;6.13;74.15
74722;BME280;63470;49.826;6.740;2024-02-23T01:45:43;98146.95;;;6.17;74.21
74722;BME280;63470;49.826;6.740;2024-02-23T01:48:11;98147.53;;;6.22;74.25
74722;BME280;63470;49.826;6.740;2024-02-23T01:50:44;98150.31;;;6.26;74.23
74722;BME280;63470;49.826;6.740;2024-02-23T01:53:14;98150.92;;;6.33;74.25
74722;BME280;63470;49.826;6.740;2024-02-23T01:55:46;98156.48;;;6.41;74.24
74722;BME280;63470;49.826;6.740;2024-02-23T01:58:16;98165.39;;;6.49;74.21
74722;BME280;63470;49.826;6.740;2024-02-23T02:00:47;98170.27;;;6.55;74.23
74722;BME280;63470;49.826;6.740;2024-02-23T02:03:13;98175.62;;;6.59;74.22
74722;BME280;63470;49.826;6.740;2024-02-23T02:05:48;98175.97;;;6.61;74.26
74722;BME280;63470;49.826;6.740;2024-02-23T02:08:17;98173.00;;;6.62;74.31
74722;BME280;63470;49.826;6.740;2024-02-23T02:10:49;98184.75;;;6.66;74.39
74722;BME280;63470;49.826;6.740;2024-02-23T02:13:22;98184.22;;;6.69;74.48
74722;BME280;63470;49.826;6.740;2024-02-23T02:15:48;98185.28;;;6.72;74.52
74722;BME280;63470;49.826;6.740;2024-02-23T02:18:21;98187.59;;;6.76;74.54
74722;BME280;63470;49.826;6.740;2024-02-23T02:20:58;98200.01;;;6.77;74.46
74722;BME280;63470;49.826;6.740;2024-02-23T02:23:20;98197.94;;;6.66;74.35
74722;BME280;63470;49.826;6.740;2024-02-23T02:26:02;98191.64;;;6.53;74.43
74722;BME280;63470;49.826;6.740;2024-02-23T02:28:18;98207.94;;;6.40;74.53
74722;BME280;63470;49.826;6.740;2024-02-23T02:30:49;98206.45;;;6.33;74.64
74722;BME280;63470;49.826;6.740;2024-02-23T02:33:22;98202.34;;;6.31;74.66
74722;BME280;63470;49.826;6.740;2024-02-23T02:35:50;98201.66;;;6.30;74.69
74722;BME280;63470;49.826;6.740;2024-02-23T02:38:26;98202.83;;;6.32;74.72
74722;BME280;63470;49.826;6.740;2024-02-23T02:40:54;98205.30;;;6.34;74.72
74722;BME280;63470;49.826;6.740;2024-02-23T02:43:27;98202.95;;;6.35;74.71
74722;BME280;63470;49.826;6.740;2024-02-23T02:45:55;98196.91;;;6.34;74.69
74722;BME280;63470;49.826;6.740;2024-02-23T02:48:24;98203.97;;;6.29;74.69
74722;BME280;63470;49.826;6.740;2024-02-23T02:50:56;98205.17;;;6.27;74.75
74722;BME280;63470;49.826;6.740;2024-02-23T02:53:28;98201.23;;;6.27;74.73
74722;BME280;63470;49.826;6.740;2024-02-23T02:55:58;98203.34;;;6.30;74.74
74722;BME280;63470;49.826;6.740;2024-02-23T02:58:30;98202.44;;;6.33;74.72
74722;BME280;63470;49.826;6.740;2024-02-23T03:01:03;98202.89;;;6.34;74.69
74722;BME280;63470;49.826;6.740;2024-02-23T03:03:33;98198.13;;;6.34;74.70
74722;BME280;63470;49.826;6.740;2024-02-23T03:06:03;98198.66;;;6.34;74.69
74722;BME280;63470;49.826;6.740;2024-02-23T03:08:29;98205.14;;;6.31;74.61
74722;BME280;63470;49.826;6.740;2024-02-23T03:11:00;98209.66;;;6.22;74.57
74722;BME280;63470;49.826;6.740;2024-02-23T03:13:37;98207.59;;;6.15;74.64
74722;BME280;63470;49.826;6.740;2024-02-23T03:16:05;98211.77;;;6.12;74.65
74722;BME280;63470;49.826;6.740;2024-02-23T03:18:33;98218.30;;;6.10;74.63
74722;BME280;63470;49.826;6.740;2024-02-23T03:21:02;98220.55;;;6.10;74.64
74722;BME280;63470;49.826;6.740;2024-02-23T03:23:35;98221.34;;;6.08;74.63
74722;BME280;63470;49.826;6.740;2024-02-23T03:26:06;98214.36;;;6.03;74.61
74722;BME280;63470;49.826;6.740;2024-02-23T03:28:38;98216.66;;;5.98;74.66
74722;BME280;63470;49.826;6.740;2024-02-23T03:31:06;98225.95;;;5.93;74.80
74722;BME280;63470;49.826;6.740;2024-02-23T03:33:39;98221.83;;;5.92;74.75
74722;BME280;63470;49.826;6.740;2024-02-23T03:36:09;98225.39;;;5.87;74.62
74722;BME280;63470;49.826;6.740;2024-02-23T03:38:37;98224.45;;;5.79;74.58
74722;BME280;63470;49.826;6.740;2024-02-23T03:41:07;98216.23;;;5.75;74.48
74722;BME280;63470;49.826;6.740;2024-02-23T03:43:40;98214.50;;;5.67;74.32
74722;BME280;63470;49.826;6.740;2024-02-23T03:46:09;98210.94;;;5.57;74.34
74722;BME280;63470;49.826;6.740;2024-02-23T03:48:40;98210.06;;;5.50;74.29
74722;BME280;63470;49.826;6.740;2024-02-23T03:51:12;98204.58;;;5.45;74.22
74722;BME280;63470;49.826;6.740;2024-02-23T03:53:42;98201.59;;;5.40;74.20
74722;BME280;63470;49.826;6.740;2024-02-23T03:56:11;98199.31;;;5.34;74.04
74722;BME280;63470;49.826;6.740;2024-02-23T03:58:44;98199.53;;;5.26;74.02
74722;BME280;63470;49.826;6.740;2024-02-23T04:01:10;98194.14;;;5.20;74.04
74722;BME280;63470;49.826;6.740;2024-02-23T04:03:45;98201.74;;;5.14;74.06
74722;BME280;63470;49.826;6.740;2024-02-23T04:06:15;98203.98;;;5.16;74.09
74722;BME280;63470;49.826;6.740;2024-02-23T04:08:41;98200.41;;;5.24;74.12
74722;BME280;63470;49.826;6.740;2024-02-23T04:11:20;98195.59;;;5.33;73.99
74722;BME280;63470;49.826;6.740;2024-02-23T04:13:45;98193.49;;;5.35;73.98
74722;BME280;63470;49.826;6.740;2024-02-23T04:16:21;98196.89;;;5.35;73.88
74722;BME280;63470;49.826;6.740;2024-02-23T04:18:49;98198.70;;;5.33;73.91
74722;BME280;63470;49.826;6.740;2024-02-23T04:21:21;98193.09;;;5.29;73.87
74722;BME280;63470;49.826;6.740;2024-02-23T04:23:47;98199.51;;;5.24;73.90
74722;BME280;63470;49.826;6.740;2024-02-23T04:26:17;98196.80;;;5.19;73.88
74722;BME280;63470;49.826;6.740;2024-02-23T04:28:48;98195.34;;;5.12;73.94
74722;BME280;63470;49.826;6.740;2024-02-23T04:31:21;98199.45;;;5.08;73.94
74722;BME280;63470;49.826;6.740;2024-02-23T04:33:52;98192.08;;;5.05;73.97
74722;BME280;63470;49.826;6.740;2024-02-23T04:36:25;98194.61;;;5.05;73.97
74722;BME280;63470;49.826;6.740;2024-02-23T04:38:52;98197.05;;;5.07;73.92
74722;BME280;63470;49.826;6.740;2024-02-23T04:41:21;98193.98;;;5.08;73.92
74722;BME280;63470;49.826;6.740;2024-02-23T04:43:51;98197.05;;;5.12;73.87
74722;BME280;63470;49.826;6.740;2024-02-23T04:46:22;98197.81;;;5.15;73.81
74722;BME280;63470;49.826;6.740;2024-02-23T04:48:55;98193.41;;;5.14;73.73
74722;BME280;63470;49.826;6.740;2024-02-23T04:51:26;98200.30;;;5.10;73.74
74722;BME280;63470;49.826;6.740;2024-02-23T04:53:58;98197.97;;;5.05;73.73
74722;BME280;63470;49.826;6.740;2024-02-23T04:56:25;98197.86;;;5.03;73.79
74722;BME280;63470;49.826;6.740;2024-02-23T04:58:57;98201.72;;;5.06;73.84
74722;BME280;63470;49.826;6.740;2024-02-23T05:01:25;98201.64;;;5.12;73.87
74722;BME280;63470;49.826;6.740;2024-02-23T05:03:58;98201.97;;;5.21;73.87
74722;BME280;63470;49.826;6.740;2024-02-23T05:06:26;98204.02;;;5.32;73.91
74722;BME280;63470;49.826;6.740;2024-02-23T05:08:59;98195.99;;;5.45;73.92
74722;BME280;63470;49.826;6.740;2024-02-23T05:11:28;98195.84;;;5.59;73.87
74722;BME280;63470;49.826;6.740;2024-02-23T05:13:56;98192.85;;;5.68;73.88
74722;BME280;63470;49.826;6.740;2024-02-23T05:16:29;98192.03;;;5.76;73.96
74722;BME280;63470;49.826;6.740;2024-02-23T05:18:59;98189.70;;;5.84;74.02
74722;BME280;63470;49.826;6.740;2024-02-23T05:21:32;98186.23;;;5.88;74.04
74722;BME280;63470;49.826;6.740;2024-02-23T05:23:58;98187.84;;;5.89;74.05
74722;BME280;63470;49.826;6.740;2024-02-23T05:26:28;98184.28;;;5.85;74.09
74722;BME280;63470;49.826;6.740;2024-02-23T05:29:04;98188.40;;;5.87;74.18
74722;BME280;63470;49.826;6.740;2024-02-23T05:31:49;98181.56;;;5.92;74.16
74722;BME280;63470;49.826;6.740;2024-02-23T05:34:02;98179.05;;;5.93;74.16
74722;BME280;63470;49.826;6.740;2024-02-23T05:36:36;98171.41;;;5.97;74.23
74722;BME280;63470;49.826;6.740;2024-02-23T05:39:06;98172.18;;;6.01;74.30
74722;BME280;63470;49.826;6.740;2024-02-23T05:41:34;98174.11;;;6.04;74.34
74722;BME280;63470;49.826;6.740;2024-02-23T05:44:09;98174.27;;;6.08;74.45
74722;BME280;63470;49.826;6.740;2024-02-23T05:46:37;98176.62;;;6.13;74.48
74722;BME280;63470;49.826;6.740;2024-02-23T05:49:09;98166.92;;;6.17;74.54
74722;BME280;63470;49.826;6.740;2024-02-23T05:51:38;98166.78;;;6.19;74.62
74722;BME280;63470;49.826;6.740;2024-02-23T05:54:04;98164.17;;;6.21;74.67
74722;BME280;63470;49.826;6.740;2024-02-23T05:56:40;98165.50;;;6.23;74.74
74722;BME280;63470;49.826;6.740;2024-02-23T05:59:07;98162.89;;;6.25;74.78
74722;BME280;63470;49.826;6.740;2024-02-23T06:01:37;98164.03;;;6.26;74.85
74722;BME280;63470;49.826;6.740;2024-02-23T06:04:11;98160.76;;;6.26;74.90
74722;BME280;63470;49.826;6.740;2024-02-23T06:06:36;98157.00;;;6.28;74.94
74722;BME280;63470;49.826;6.740;2024-02-23T06:09:10;98150.64;;;6.29;74.97
74722;BME280;63470;49.826;6.740;2024-02-23T06:11:42;98153.10;;;6.29;74.98
74722;BME280;63470;49.826;6.740;2024-02-23T06:14:08;98151.04;;;6.27;75.01
74722;BME280;63470;49.826;6.740;2024-02-23T06:16:43;98150.61;;;6.22;75.00
74722;BME280;63470;49.826;6.740;2024-02-23T06:19:15;98152.84;;;6.17;75.08
74722;BME280;63470;49.826;6.740;2024-02-23T06:21:47;98156.17;;;6.16;75.19
74722;BME280;63470;49.826;6.740;2024-02-23T06:24:12;98158.00;;;6.17;75.22
74722;BME280;63470;49.826;6.740;2024-02-23T06:26:46;98145.14;;;6.20;75.21
74722;BME280;63470;49.826;6.740;2024-02-23T06:29:16;98151.78;;;6.24;75.19
74722;BME280;63470;49.826;6.740;2024-02-23T06:31:47;98149.56;;;6.27;75.19
74722;BME280;63470;49.826;6.740;2024-02-23T06:34:17;98149.91;;;6.29;75.23
74722;BME280;63470;49.826;6.740;2024-02-23T06:36:45;98145.41;;;6.32;75.24
74722;BME280;63470;49.826;6.740;2024-02-23T06:39:16;98148.12;;;6.34;75.25
74722;BME280;63470;49.826;6.740;2024-02-23T06:41:46;98142.10;;;6.35;75.26
74722;BME280;63470;49.826;6.740;2024-02-23T06:44:21;98141.12;;;6.37;75.31
74722;BME280;63470;49.826;6.740;2024-02-23T06:46:50;98144.02;;;6.39;75.32
74722;BME280;63470;49.826;6.740;2024-02-23T06:49:19;98140.40;;;6.40;75.35
74722;BME280;63470;49.826;6.740;2024-02-23T06:51:49;98136.33;;;6.41;75.39
74722;BME280;63470;49.826;6.740;2024-02-23T06:54:17;98140.51;;;6.41;75.42
74722;BME280;63470;49.826;6.740;2024-02-23T06:56:48;98136.46;;;6.40;75.50
74722;BME280;63470;49.826;6.740;2024-02-23T06:59:18;98136.56;;;6.42;75.62
74722;BME280;63470;49.826;6.740;2024-02-23T07:01:56;98142.19;;;6.45;75.67
74722;BME280;63470;49.826;6.740;2024-02-23T07:04:21;98144.59;;;6.49;75.68
74722;BME280;63470;49.826;6.740;2024-02-23T07:06:50;98150.23;;;6.52;75.68
74722;BME280;63470;49.826;6.740;2024-02-23T07:09:23;98149.09;;;6.54;75.65
74722;BME280;63470;49.826;6.740;2024-02-23T07:11:51;98151.41;;;6.56;75.63
74722;BME280;63470;49.826;6.740;2024-02-23T07:14:25;98148.25;;;6.57;75.65
74722;BME280;63470;49.826;6.740;2024-02-23T07:16:52;98150.70;;;6.57;75.68
74722;BME280;63470;49.826;6.740;2024-02-23T07:19:21;98149.89;;;6.60;75.71
74722;BME280;63470;49.826;6.740;2024-02-23T07:21:55;98148.27;;;6.64;75.74
74722;BME280;63470;49.826;6.740;2024-02-23T07:24:28;98145.38;;;6.69;75.74
74722;BME280;63470;49.826;6.740;2024-02-23T07:26:51;98150.23;;;6.71;75.75
74722;BME280;63470;49.826;6.740;2024-02-23T07:29:27;98156.12;;;6.74;75.80
74722;BME280;63470;49.826;6.740;2024-02-23T07:31:52;98153.69;;;6.75;75.86
74722;BME280;63470;49.826;6.740;2024-02-23T07:34:23;98170.39;;;6.76;75.92
74722;BME280;63470;49.826;6.740;2024-02-23T07:36:54;98167.47;;;6.78;75.97
74722;BME280;63470;49.826;6.740;2024-02-23T07:39:23;98166.73;;;6.80;76.04
74722;BME280;63470;49.826;6.740;2024-02-23T07:41:54;98169.16;;;6.85;76.11
74722;BME280;63470;49.826;6.740;2024-02-23T07:44:27;98167.28;;;6.88;76.13
74722;BME280;63470;49.826;6.740;2024-02-23T07:46:56;98167.98;;;6.91;76.14
74722;BME280;63470;49.826;6.740;2024-02-23T07:49:25;98174.16;;;7.00;76.12
74722;BME280;63470;49.826;6.740;2024-02-23T07:51:58;98170.05;;;7.11;76.12
74722;BME280;63470;49.826;6.740;2024-02-23T07:54:29;98166.78;;;7.18;76.16
74722;BME280;63470;49.826;6.740;2024-02-23T07:57:01;98170.23;;;7.16;76.10
74722;BME280;63470;49.826;6.740;2024-02-23T07:59:32;98175.11;;;7.10;76.16
74722;BME280;63470;49.826;6.740;2024-02-23T08:02:00;98171.73;;;7.06;76.21
74722;BME280;63470;49.826;6.740;2024-02-23T08:04:29;98177.15;;;7.03;76.24
74722;BME280;63470;49.826;6.740;2024-02-23T08:07:04;98182.70;;;7.01;76.20
74722;BME280;63470;49.826;6.740;2024-02-23T08:09:30;98183.92;;;7.00;76.18
74722;BME280;63470;49.826;6.740;2024-02-23T08:12:03;98179.00;;;7.02;76.15
74722;BME280;63470;49.826;6.740;2024-02-23T08:14:32;98176.98;;;7.03;76.13
74722;BME280;63470;49.826;6.740;2024-02-23T08:17:05;98177.81;;;7.08;76.10
74722;BME280;63470;49.826;6.740;2024-02-23T08:19:37;98176.20;;;7.14;76.00
74722;BME280;63470;49.826;6.740;2024-02-23T08:22:05;98179.59;;;7.31;75.74
74722;BME280;63470;49.826;6.740;2024-02-23T08:24:37;98180.97;;;7.47;75.61
74722;BME280;63470;49.826;6.740;2024-02-23T08:27:04;98179.87;;;7.62;75.56
74722;BME280;63470;49.826;6.740;2024-02-23T08:29:37;98181.53;;;7.70;75.44
74722;BME280;63470;49.826;6.740;2024-02-23T08:32:05;98184.84;;;7.74;75.34
74722;BME280;63470;49.826;6.740;2024-02-23T08:34:39;98181.11;;;7.77;75.25
74722;BME280;63470;49.826;6.740;2024-02-23T08:37:10;98193.86;;;7.77;75.23
74722;BME280;63470;49.826;6.740;2024-02-23T08:39:42;98196.64;;;7.74;75.25
74722;BME280;63470;49.826;6.740;2024-02-23T08:42:11;98187.12;;;7.72;75.20
74722;BME280;63470;49.826;6.740;2024-02-23T08:44:39;98190.22;;;7.69;75.20
74722;BME280;63470;49.826;6.740;2024-02-23T08:47:12;98191.92;;;7.69;75.29
74722;BME280;63470;49.826;6.740;2024-02-23T08:49:42;98199.59;;;7.73;75.21
74722;BME280;63470;49.826;6.740;2024-02-23T08:52:11;98206.38;;;7.73;75.12
74722;BME280;63470;49.826;6.740;2024-02-23T08:54:45;98210.61;;;7.72;75.06
74722;BME280;63470;49.826;6.740;2024-02-23T08:57:09;98217.62;;;7.69;75.03
74722;BME280;63470;49.826;6.740;2024-02-23T08:59:42;98214.81;;;7.65;75.04
74722;BME280;63470;49.826;6.740;2024-02-23T09:02:13;98214.39;;;7.61;75.03
74722;BME280;63470;49.826;6.740;2024-02-23T09:04:43;98218.10;;;7.58;75.01
74722;BME280;63470;49.826;6.740;2024-02-23T09:07:22;98219.39;;;7.59;75.10
74722;BME280;63470;49.826;6.740;2024-02-23T09:09:46;98221.12;;;7.63;75.11
74722;BME280;63470;49.826;6.740;2024-02-23T09:12:14;98229.11;;;7.69;75.14
74722;BME280;63470;49.826;6.740;2024-02-23T09:14:46;98228.47;;;7.73;75.12
74722;BME280;63470;49.826;6.740;2024-02-23T09:17:16;98219.78;;;7.75;75.00
74722;BME280;63470;49.826;6.740;2024-02-23T09:19:43;98218.05;;;7.80;75.03
74722;BME280;63470;49.826;6.740;2024-02-23T09:22:13;98211.52;;;8.57;74.74
74722;BME280;63470;49.826;6.740;2024-02-23T09:24:44;98215.28;;;8.99;75.02
74722;BME280;63470;49.826;6.740;2024-02-23T09:27:15;98212.53;;;9.60;74.88
74722;BME280;63470;49.826;6.740;2024-02-23T09:29:44;98212.44;;;9.96;74.39
74722;BME280;63470;49.826;6.740;2024-02-23T09:32:15;98203.16;;;10.49;74.38
74722;BME280;63470;49.826;6.740;2024-02-23T09:34:45;98205.02;;;10.75;73.93
74722;BME280;63470;49.826;6.740;2024-02-23T09:37:16;98205.64;;;11.64;73.57
74722;BME280;63470;49.826;6.740;2024-02-23T09:39:46;98196.27;;;12.66;73.13
74722;BME280;63470;49.826;6.740;2024-02-23T09:42:23;98199.16;;;13.12;72.47
74722;BME280;63470;49.826;6.740;2024-02-23T09:44:51;98207.03;;;13.20;71.88
74722;BME280;63470;49.826;6.740;2024-02-23T09:47:23;98197.74;;;13.56;71.49
74722;BME280;63470;49.826;6.740;2024-02-23T09:49:52;98195.82;;;13.82;72.03
74722;BME280;63470;49.826;6.740;2024-02-23T09:52:23;98193.47;;;13.14;71.01
74722;BME280;63470;49.826;6.740;2024-02-23T09:54:54;98190.53;;;12.09;72.36
74722;BME280;63470;49.826;6.740;2024-02-23T09:57:20;98197.10;;;11.41;73.72
74722;BME280;63470;49.826;6.740;2024-02-23T09:59:53;98188.30;;;10.96;74.39
74722;BME280;63470;49.826;6.740;2024-02-23T10:02:21;98196.27;;;10.54;74.61
74722;BME280;63470;49.826;6.740;2024-02-23T10:04:57;98183.78;;;10.18;74.96
74722;BME280;63470;49.826;6.740;2024-02-23T10:07:25;98186.56;;;9.99;75.25
74722;BME280;63470;49.826;6.740;2024-02-23T10:09:56;98196.80;;;9.84;75.39
74722;BME280;63470;49.826;6.740;2024-02-23T10:12:28;98199.39;;;9.73;75.48
74722;BME280;63470;49.826;6.740;2024-02-23T10:15:00;98194.08;;;9.63;75.45
74722;BME280;63470;49.826;6.740;2024-02-23T10:17:31;98193.91;;;9.48;75.37
74722;BME280;63470;49.826;6.740;2024-02-23T10:20:03;98192.12;;;9.38;75.56
74722;BME280;63470;49.826;6.740;2024-02-23T10:22:33;98195.91;;;9.38;75.57
74722;BME280;63470;49.826;6.740;2024-02-23T10:25:03;98192.94;;;9.38;75.41
74722;BME280;63470;49.826;6.740;2024-02-23T10:27:31;98195.01;;;9.36;75.32
74722;BME280;63470;49.826;6.740;2024-02-23T10:30:04;98201.61;;;9.36;75.46
74722;BME280;63470;49.826;6.740;2024-02-23T10:32:32;98203.67;;;9.36;75.34
74722;BME280;63470;49.826;6.740;2024-02-23T10:35:03;98207.29;;;9.32;75.26
74722;BME280;63470;49.826;6.740;2024-02-23T10:37:33;98215.02;;;9.28;75.25
74722;BME280;63470;49.826;6.740;2024-02-23T10:40:05;98213.72;;;9.28;75.36
74722;BME280;63470;49.826;6.740;2024-02-23T10:42:34;98212.62;;;9.31;75.38
74722;BME280;63470;49.826;6.740;2024-02-23T10:45:07;98222.38;;;9.47;75.23
74722;BME280;63470;49.826;6.740;2024-02-23T10:47:37;98222.48;;;9.66;75.25
74722;BME280;63470;49.826;6.740;2024-02-23T10:50:10;98211.72;;;9.79;75.15
74722;BME280;63470;49.826;6.740;2024-02-23T10:52:38;98218.38;;;9.82;74.92
74722;BME280;63470;49.826;6.740;2024-02-23T10:55:08;98224.24;;;9.77;74.82
74722;BME280;63470;49.826;6.740;2024-02-23T10:57:40;98227.39;;;9.76;74.91
74722;BME280;63470;49.826;6.740;2024-02-23T11:00:14;98216.83;;;9.75;74.87
74722;BME280;63470;49.826;6.740;2024-02-23T11:02:43;98214.56;;;9.83;74.94
74722;BME280;63470;49.826;6.740;2024-02-23T11:05:11;98214.23;;;10.10;74.76
74722;BME280;63470;49.826;6.740;2024-02-23T11:07:40;98202.69;;;10.84;74.11
74722;BME280;63470;49.826;6.740;2024-02-23T11:10:08;98199.64;;;11.95;73.64
74722;BME280;63470;49.826;6.740;2024-02-23T11:12:38;98192.18;;;12.72;73.50
74722;BME280;63470;49.826;6.740;2024-02-23T11:15:26;98193.30;;;12.65;73.11
74722;BME280;63470;49.826;6.740;2024-02-23T11:17:49;98192.44;;;12.30;73.06
74722;BME280;63470;49.826;6.740;2024-02-23T11:20:14;98189.16;;;12.57;73.24
74722;BME280;63470;49.826;6.740;2024-02-23T11:22:42;98173.36;;;13.70;72.90
74722;BME280;63470;49.826;6.740;2024-02-23T11:25:11;98169.24;;;13.44;72.64
74722;BME280;63470;49.826;6.740;2024-02-23T11:27:44;98174.07;;;13.30;73.06
74722;BME280;63470;49.826;6.740;2024-02-23T11:30:17;98169.63;;;13.24;73.29
74722;BME280;63470;49.826;6.740;2024-02-23T11:32:51;98171.95;;;12.61;73.01
74722;BME280;63470;49.826;6.740;2024-02-23T11:35:16;98175.10;;;12.64;73.92
74722;BME280;63470;49.826;6.740;2024-02-23T11:37:56;98172.72;;;13.31;74.00
74722;BME280;63470;49.826;6.740;2024-02-23T11:40:18;98164.48;;;14.13;73.43
74722;BME280;63470;49.826;6.740;2024-02-23T11:42:50;98164.67;;;14.14;73.18
74722;BME280;63470;49.826;6.740;2024-02-23T11:45:21;98174.59;;;13.73;73.06
74722;BME280;63470;49.826;6.740;2024-02-23T11:47:47;98162.73;;;13.70;72.76
74722;BME280;63470;49.826;6.740;2024-02-23T11:50:21;98162.16;;;13.90;72.33
74722;BME280;63470;49.826;6.740;2024-02-23T11:52:53;98167.86;;;13.50;72.14
74722;BME280;63470;49.826;6.740;2024-02-23T11:55:19;98174.88;;;12.78;72.88
74722;BME280;63470;49.826;6.740;2024-02-23T11:57:52;98171.57;;;11.99;72.31
74722;BME280;63470;49.826;6.740;2024-02-23T12:00:23;98175.76;;;11.27;72.13
74722;BME280;63470;49.826;6.740;2024-02-23T12:02:56;98176.15;;;10.62;73.18
74722;BME280;63470;49.826;6.740;2024-02-23T12:05:26;98180.47;;;10.20;74.29
74722;BME280;63470;49.826;6.740;2024-02-23T12:07:57;98174.14;;;9.83;74.19
74722;BME280;63470;49.826;6.740;2024-02-23T12:10:25;98189.92;;;9.34;74.32
74722;BME280;63470;49.826;6.740;2024-02-23T12:12:53;98200.38;;;8.98;75.25
74722;BME280;63470;49.826;6.740;2024-02-23T12:15:23;98229.51;;;8.62;75.02
74722;BME280;63470;49.826;6.740;2024-02-23T12:17:59;98215.92;;;7.96;73.56
74722;BME280;63470;49.826;6.740;2024-02-23T12:20:32;98201.02;;;7.33;74.56
74722;BME280;63470;49.826;6.740;2024-02-23T12:23:01;98209.61;;;7.23;75.72
74722;BME280;63470;49.826;6.740;2024-02-23T12:25:25;98207.04;;;7.51;75.94
74722;BME280;63470;49.826;6.740;2024-02-23T12:28:01;98205.48;;;7.53;76.09
74722;BME280;63470;49.826;6.740;2024-02-23T12:30:34;98201.10;;;7.65;76.36
74722;BME280;63470;49.826;6.740;2024-02-23T12:33:15;98198.52;;;7.94;76.43
74722;BME280;63470;49.826;6.740;2024-02-23T12:35:30;98186.03;;;8.26;76.23
74722;BME280;63470;49.826;6.740;2024-02-23T12:38:01;98182.55;;;8.82;75.87
74722;BME280;63470;49.826;6.740;2024-02-23T12:40:28;98171.62;;;10.62;74.65
74722;BME280;63470;49.826;6.740;2024-02-23T12:43:04;98171.81;;;11.05;74.07
74722;BME280;63470;49.826;6.740;2024-02-23T12:45:34;98166.41;;;11.01;73.73
74722;BME280;63470;49.826;6.740;2024-02-23T12:48:00;98165.94;;;10.86;73.62
74722;BME280;63470;49.826;6.740;2024-02-23T12:50:32;98160.12;;;10.76;73.90
74722;BME280;63470;49.826;6.740;2024-02-23T12:53:02;98162.02;;;10.66;74.17
74722;BME280;63470;49.826;6.740;2024-02-23T12:55:34;98164.61;;;10.55;74.17
74722;BME280;63470;49.826;6.740;2024-02-23T12:58:02;98166.86;;;10.38;74.01
74722;BME280;63470;49.826;6.740;2024-02-23T13:00:37;98160.50;;;10.18;74.33
74722;BME280;63470;49.826;6.740;2024-02-23T13:03:06;98155.61;;;10.22;74.58
74722;BME280;63470;49.826;6.740;2024-02-23T13:05:33;98151.80;;;10.27;74.47
74722;BME280;63470;49.826;6.740;2024-02-23T13:08:09;98153.96;;;10.23;74.34
74722;BME280;63470;49.826;6.740;2024-02-23T13:10:38;98148.66;;;10.19;74.50
74722;BME280;63470;49.826;6.740;2024-02-23T13:13:05;98156.69;;;10.23;74.54
74722;BME280;63470;49.826;6.740;2024-02-23T13:15:43;98147.72;;;10.33;74.42
74722;BME280;63470;49.826;6.740;2024-02-23T13:18:11;98160.12;;;10.34;74.46
74722;BME280;63470;49.826;6.740;2024-02-23T13:20:39;98158.31;;;10.28;74.30
74722;BME280;63470;49.826;6.740;2024-02-23T13:23:17;98162.12;;;10.42;74.12
74722;BME280;63470;49.826;6.740;2024-02-23T13:25:42;98155.44;;;10.34;73.99